Time;durP1;ratioP1;P1;durP2;ratioP2;P2;SDS_P1;SDS_P2;PMS_P1;PMS_P2;Temp;Humidity;BMP_temperature;BMP_pressure;BME280_temperature;BME280_humidity;BME280_pressure;Samples;Min_cycle;Max_cycle;Signal;HPM_P1;HPM_P2
2023/05/16 00:02:20;;;;;;;22.37;17.87;;;;;;;16.20;100.00;94596.44;5015114;28;20495;-85
2023/05/16 00:14:52;;;;;;;22.57;16.60;;;;;;;16.13;100.00;94583.03;5013635;28;20437;-85
2023/05/16 00:17:21;;;;;;;19.50;15.63;;;;;;;16.13;100.00;94579.56;5014845;28;20443;-85
2023/05/16 00:19:48;;;;;;;19.70;16.50;;;;;;;16.06;100.00;94572.31;5014525;28;20439;-85
2023/05/16 00:22:16;;;;;;;17.87;15.97;;;;;;;16.13;100.00;94579.56;5014532;28;20475;-85
2023/05/16 00:24:43;;;;;;;21.20;15.97;;;;;;;16.15;100.00;94577.59;5012836;28;20529;-85
2023/05/16 00:27:09;;;;;;;17.90;16.00;;;;;;;16.14;100.00;94578.59;5014401;28;20474;-85
2023/05/16 00:29:36;;;;;;;31.47;18.70;;;;;;;16.14;100.00;94586.53;5014629;28;20434;-85
2023/05/16 00:32:03;;;;;;;23.60;17.10;;;;;;;16.10;100.00;94581.56;5014528;28;20915;-85
2023/05/16 00:34:31;;;;;;;20.97;16.07;;;;;;;15.96;100.00;94579.66;5014113;28;20442;-85
2023/05/16 00:36:58;;;;;;;30.13;17.97;;;;;;;16.00;100.00;94580.13;5015341;28;20431;-85
2023/05/16 00:39:25;;;;;;;19.33;15.40;;;;;;;15.91;100.00;94566.09;5014204;28;20431;-85
2023/05/16 00:41:52;;;;;;;18.83;16.77;;;;;;;15.89;100.00;94573.38;5015325;28;20518;-85
2023/05/16 00:44:18;;;;;;;19.40;17.27;;;;;;;15.89;100.00;94565.44;5014114;28;20438;-85
2023/05/16 00:46:45;;;;;;;17.83;15.93;;;;;;;15.90;100.00;94561.81;5014010;28;20475;-85
2023/05/16 00:49:12;;;;;;;18.67;15.63;;;;;;;15.92;100.00;94564.28;5014058;28;20442;-85
2023/05/16 00:51:40;;;;;;;20.40;15.73;;;;;;;15.93;100.00;94555.34;5014688;28;20463;-85
2023/05/16 00:54:07;;;;;;;23.53;17.10;;;;;;;15.91;100.00;94542.28;5014580;28;21185;-85
2023/05/16 00:56:35;;;;;;;23.10;16.70;;;;;;;15.94;100.00;94551.72;5014151;28;20439;-85
2023/05/16 00:59:02;;;;;;;20.83;16.90;;;;;;;15.93;100.00;94547.41;5014180;28;20441;-86
2023/05/16 01:01:51;;;;;;;24.53;17.80;;;;;;;15.86;100.00;94544.59;5013806;28;21014;-85
2023/05/16 01:07:41;;;;;;;26.60;16.80;;;;;;;15.77;100.00;94545.63;5013007;28;20466;-85
2023/05/16 01:10:09;;;;;;;19.97;17.73;;;;;;;15.76;100.00;94538.69;5013924;28;20438;-85
2023/05/16 01:12:41;;;;;;;18.07;16.10;;;;;;;15.77;100.00;94543.00;5013146;28;20435;-85
2023/05/16 01:15:12;;;;;;;21.73;18.53;;;;;;;15.49;100.00;94535.41;5012024;28;20795;-85
2023/05/16 01:17:51;;;;;;;19.83;17.60;;;;;;;15.12;100.00;94528.06;5012239;28;20454;-85
2023/05/16 01:20:28;;;;;;;22.23;18.17;;;;;;;15.28;100.00;94531.66;5012318;28;20538;-85
2023/05/16 01:23:27;;;;;;;21.40;18.43;;;;;;;15.19;100.00;94531.66;5012113;28;20451;-84
2023/05/16 01:26:12;;;;;;;21.50;18.20;;;;;;;15.05;100.00;94529.72;5011679;28;20507;-84
2023/05/16 01:28:40;;;;;;;21.23;18.93;;;;;;;14.99;100.00;94527.72;5012019;28;20459;-84
2023/05/16 01:31:06;;;;;;;23.60;20.73;;;;;;;15.03;100.00;94529.03;5012403;28;20455;-84
2023/05/16 01:33:33;;;;;;;24.17;20.83;;;;;;;15.12;100.00;94525.41;5011898;28;20445;-84
2023/05/16 01:36:10;;;;;;;23.23;18.40;;;;;;;15.01;100.00;94519.63;5012034;28;20461;-84
2023/05/16 01:38:42;;;;;;;20.67;18.60;;;;;;;15.13;100.00;94502.44;5012190;28;20483;-84
2023/05/16 01:41:18;;;;;;;27.33;18.77;;;;;;;15.24;100.00;94503.91;5012403;28;20454;-84
2023/05/16 01:43:49;;;;;;;20.00;17.47;;;;;;;15.31;100.00;94500.41;5012096;28;20444;-85
2023/05/16 01:46:21;;;;;;;19.30;17.37;;;;;;;15.41;100.00;94492.31;5015112;28;20486;-84
2023/05/16 01:48:53;;;;;;;24.80;18.63;;;;;;;15.45;100.00;94491.81;5015723;28;20447;-85
2023/05/16 01:51:22;;;;;;;22.93;17.13;;;;;;;15.54;100.00;94497.06;5016179;28;20481;-84
2023/05/16 01:53:50;;;;;;;23.13;17.73;;;;;;;15.63;100.00;94509.31;5015715;28;20452;-84
2023/05/16 01:56:20;;;;;;;19.70;16.77;;;;;;;15.67;100.00;94487.66;5015924;28;20455;-84
2023/05/16 01:58:49;;;;;;;19.47;17.00;;;;;;;15.40;100.00;94491.50;5015690;28;20548;-84
2023/05/16 02:01:16;;;;;;;23.03;17.50;;;;;;;15.45;100.00;94491.81;5013454;28;20959;-84
2023/05/16 02:03:43;;;;;;;22.03;16.90;;;;;;;15.58;100.00;94493.09;5015499;28;20478;-84
2023/05/16 02:06:10;;;;;;;21.23;16.30;;;;;;;15.53;100.00;94496.25;5015534;28;20489;-84
2023/05/16 02:08:37;;;;;;;20.97;16.53;;;;;;;15.56;100.00;94487.13;5015508;28;20517;-84
2023/05/16 02:11:03;;;;;;;19.90;17.70;;;;;;;15.61;100.00;94490.13;5015531;28;20446;-84
2023/05/16 02:13:31;;;;;;;17.90;16.00;;;;;;;15.62;100.00;94484.69;5015318;28;20458;-84
2023/05/16 02:15:58;;;;;;;18.40;15.23;;;;;;;15.58;100.00;94479.84;5015687;28;20903;-84
2023/05/16 02:18:27;;;;;;;22.93;18.43;;;;;;;15.67;100.00;94486.81;5015403;28;20450;-84
2023/05/16 02:20:54;;;;;;;17.77;15.87;;;;;;;15.75;100.00;94484.13;5015282;28;20483;-85
2023/05/16 02:23:20;;;;;;;16.03;14.40;;;;;;;15.80;100.00;94476.50;5015247;28;20512;-84
2023/05/16 02:25:47;;;;;;;24.23;15.87;;;;;;;15.84;100.00;94474.34;5015335;28;20451;-84
2023/05/16 02:28:14;;;;;;;21.70;16.53;;;;;;;15.81;100.00;94475.50;5015175;28;20505;-84
2023/05/16 02:30:42;;;;;;;19.20;16.20;;;;;;;15.80;100.00;94477.31;5015263;28;21016;-84
2023/05/16 02:33:09;;;;;;;19.77;17.40;;;;;;;15.86;100.00;94477.63;5013043;28;20496;-84
2023/05/16 02:35:36;;;;;;;18.53;16.47;;;;;;;15.89;100.00;94480.75;5015034;28;20449;-84
2023/05/16 02:38:03;;;;;;;18.40;15.60;;;;;;;15.85;100.00;94483.91;5014954;28;20446;-84
2023/05/16 02:40:30;;;;;;;22.60;16.50;;;;;;;15.81;100.00;94483.44;5014846;28;20443;-84
2023/05/16 02:42:57;;;;;;;18.07;16.07;;;;;;;15.85;100.00;94484.75;5014916;28;20441;-84
2023/05/16 02:45:23;;;;;;;17.17;14.83;;;;;;;15.84;100.00;94477.81;5014822;28;20447;-84
2023/05/16 02:47:52;;;;;;;17.23;15.40;;;;;;;15.82;100.00;94486.91;5014869;28;20486;-84
2023/05/16 02:50:18;;;;;;;17.67;14.23;;;;;;;15.60;100.00;94480.53;4996029;28;20857;-84
2023/05/16 02:52:46;;;;;;;20.93;16.70;;;;;;;15.58;100.00;94479.84;5014622;28;20673;-84
2023/05/16 02:55:12;;;;;;;22.67;16.00;;;;;;;15.39;100.00;94473.97;5014687;28;20481;-84
2023/05/16 02:57:39;;;;;;;19.60;15.13;;;;;;;15.33;100.00;94466.72;5014135;28;20444;-84
2023/05/16 03:00:10;;;;;;;17.50;15.00;;;;;;;15.35;100.00;94458.63;5012511;28;20443;-84
2023/05/16 03:02:37;;;;;;;23.93;17.67;;;;;;;15.28;100.00;94462.91;5012150;28;20452;-84
2023/05/16 03:05:06;;;;;;;20.00;15.67;;;;;;;15.37;100.00;94461.94;5015030;28;20440;-84
2023/05/16 03:07:32;;;;;;;19.27;15.00;;;;;;;15.14;100.00;94467.91;5014635;28;20492;-85
2023/05/16 03:09:59;;;;;;;18.80;16.00;;;;;;;15.30;100.00;94467.03;5014188;28;20857;-84
2023/05/16 03:12:26;;;;;;;21.10;14.83;;;;;;;15.39;100.00;94470.50;5014296;28;20491;-84
2023/05/16 03:14:53;;;;;;;16.23;14.60;;;;;;;15.33;100.00;94476.47;5014434;28;20443;-84
2023/05/16 03:17:20;;;;;;;20.63;14.70;;;;;;;15.23;100.00;94476.66;5012212;28;20592;-84
2023/05/16 03:19:46;;;;;;;20.33;15.97;;;;;;;15.20;100.00;94466.41;5014297;28;20514;-84
2023/05/16 03:22:15;;;;;;;18.57;16.10;;;;;;;15.35;100.00;94472.69;5014549;28;20429;-84
2023/05/16 03:24:41;;;;;;;15.50;13.90;;;;;;;15.32;100.00;94477.44;5013858;28;20454;-84
2023/05/16 03:27:08;;;;;;;17.20;15.43;;;;;;;15.26;100.00;94476.31;5013920;28;20484;-84
2023/05/16 03:29:35;;;;;;;19.40;15.30;;;;;;;15.24;100.00;94480.94;5013953;28;20454;-84
2023/05/16 03:32:02;;;;;;;18.73;16.13;;;;;;;15.36;100.00;94469.03;5014016;28;20451;-84
2023/05/16 03:34:29;;;;;;;21.33;14.13;;;;;;;15.37;100.00;94469.84;5013474;28;20448;-84
2023/05/16 03:36:56;;;;;;;19.43;17.33;;;;;;;15.42;100.00;94471.00;5015411;28;20438;-84
2023/05/16 03:39:24;;;;;;;19.90;16.60;;;;;;;15.44;100.00;94470.81;5015272;28;20482;-84
2023/05/16 03:41:54;;;;;;;22.87;17.47;;;;;;;15.26;100.00;94465.72;5014215;28;20489;-84
2023/05/16 03:44:21;;;;;;;22.30;17.37;;;;;;;15.36;100.00;94466.38;5014069;28;20451;-84
2023/05/16 03:46:50;;;;;;;22.00;17.90;;;;;;;15.22;100.00;94464.44;5012328;28;20838;-85
2023/05/16 03:49:17;;;;;;;20.87;16.37;;;;;;;15.22;100.00;94467.06;5010120;28;20462;-85
2023/05/16 03:51:44;;;;;;;20.83;17.33;;;;;;;15.26;100.00;94472.84;5000971;28;20462;-85
2023/05/16 03:54:10;;;;;;;25.53;19.70;;;;;;;15.18;100.00;94471.03;5013858;28;20454;-85
2023/05/16 03:56:39;;;;;;;21.50;19.20;;;;;;;15.34;100.00;94476.31;5013596;28;20460;-85
2023/05/16 03:59:05;;;;;;;22.70;16.67;;;;;;;15.39;100.00;94475.81;5013478;28;20471;-84
2023/05/16 04:01:32;;;;;;;20.87;18.70;;;;;;;15.42;100.00;94464.88;5013251;28;20444;-84
2023/05/16 04:03:59;;;;;;;18.73;16.17;;;;;;;15.55;100.00;94474.91;5013308;28;20474;-85
2023/05/16 04:06:26;;;;;;;20.93;17.50;;;;;;;15.62;100.00;94468.00;5014911;28;20484;-85
2023/05/16 04:08:52;;;;;;;20.83;15.97;;;;;;;15.67;100.00;94463.00;5014297;28;20441;-84
2023/05/16 04:11:20;;;;;;;32.60;19.93;;;;;;;15.73;100.00;94473.72;5014903;28;20441;-84
2023/05/16 04:13:48;;;;;;;21.33;17.93;;;;;;;15.76;100.00;94473.38;5014959;28;20450;-84
2023/05/16 04:16:15;;;;;;;21.63;16.87;;;;;;;15.67;100.00;94478.88;5014978;28;20862;-88
2023/05/16 04:18:42;;;;;;;20.93;18.03;;;;;;;15.68;100.00;94486.66;5014910;28;20434;-86
2023/05/16 04:21:13;;;;;;;19.40;15.73;;;;;;;15.79;100.00;94486.25;4980528;28;20454;-85
2023/05/16 04:23:40;;;;;;;15.13;13.10;;;;;;;16.46;100.00;94485.72;5014602;28;20899;-83
2023/05/16 04:26:07;;;;;;;20.50;13.47;;;;;;;17.05;100.00;94478.00;5014671;28;21046;-83
2023/05/16 04:28:34;;;;;;;18.93;12.60;;;;;;;17.70;98.34;94485.38;5014419;28;20473;-82
2023/05/16 04:31:02;;;;;;;13.80;12.40;;;;;;;18.26;93.11;94485.66;5014412;28;20449;-83
2023/05/16 04:33:29;;;;;;;20.30;13.50;;;;;;;18.61;89.75;94480.50;5015003;28;20455;-82
2023/05/16 04:35:56;;;;;;;22.83;13.40;;;;;;;18.83;86.80;94488.34;5014923;28;20518;-83
2023/05/16 04:38:23;;;;;;;19.40;14.17;;;;;;;19.06;87.60;94488.09;5014535;28;20958;-81
2023/05/16 04:40:50;;;;;;;16.00;13.27;;;;;;;19.09;87.10;94479.78;5014090;28;20446;-81
2023/05/16 04:43:17;;;;;;;17.80;13.93;;;;;;;19.23;85.33;94479.88;4980759;28;20535;-84
2023/05/16 04:45:44;;;;;;;15.00;12.90;;;;;;;18.69;84.68;94480.41;5014704;28;20880;-85
2023/05/16 04:48:14;;;;;;;14.50;13.00;;;;;;;18.40;85.60;94482.13;5014822;28;20526;-85
2023/05/16 04:50:40;;;;;;;18.10;14.00;;;;;;;18.18;86.66;94480.44;4947864;28;20456;-85
2023/05/16 04:56:29;;;;;;;22.57;14.50;;;;;;;17.47;90.65;94484.59;5014043;28;20925;-85
2023/05/16 04:58:55;;;;;;;19.30;15.57;;;;;;;17.22;91.91;94476.88;5013915;28;20947;-84
2023/05/16 05:01:22;;;;;;;15.50;13.80;;;;;;;17.01;93.36;94460.81;5014589;28;20440;-84
2023/05/16 05:03:51;;;;;;;20.30;13.87;;;;;;;16.90;93.83;94466.56;5014392;28;20871;-85
2023/05/16 05:19:46;;;;;;;20.37;14.53;;;;;;;16.43;97.78;94476.31;4992491;28;20434;-86
2023/05/16 05:22:12;;;;;;;14.57;13.07;;;;;;;16.41;97.63;94475.66;4993136;28;20454;-84
2023/05/16 05:24:39;;;;;;;17.63;14.80;;;;;;;16.38;98.18;94478.66;4994195;28;20434;-84
2023/05/16 05:27:06;;;;;;;19.43;13.30;;;;;;;16.37;98.63;94481.50;4994050;28;20488;-83
2023/05/16 05:29:33;;;;;;;17.70;13.97;;;;;;;16.34;98.41;94479.19;4994204;28;20519;-85
2023/05/16 05:32:00;;;;;;;30.13;14.77;;;;;;;16.35;98.58;94473.72;4994023;28;20957;-85
2023/05/16 05:34:26;;;;;;;21.27;14.20;;;;;;;16.31;98.54;94468.97;4994399;28;21118;-84
2023/05/16 05:36:55;;;;;;;16.10;13.50;;;;;;;16.30;98.83;94469.97;4994191;28;20532;-85
2023/05/16 05:39:23;;;;;;;18.77;13.70;;;;;;;16.13;99.05;94466.56;4994001;28;20438;-85
2023/05/16 05:41:49;;;;;;;24.57;15.73;;;;;;;16.24;99.90;94460.09;4994368;28;20481;-85
2023/05/16 05:44:16;;;;;;;16.07;14.27;;;;;;;16.29;98.82;94452.44;4993792;28;20435;-84
2023/05/16 05:46:43;;;;;;;24.20;14.60;;;;;;;16.35;99.11;94457.84;4993691;28;20446;-85
2023/05/16 05:49:10;;;;;;;15.07;13.47;;;;;;;16.34;98.92;94461.50;4993764;28;20433;-84
2023/05/16 05:51:37;;;;;;;22.13;15.10;;;;;;;16.40;98.53;94462.59;4994162;28;20452;-85
2023/05/16 05:54:05;;;;;;;25.50;15.03;;;;;;;16.42;98.48;94458.78;4993927;28;20452;-85
2023/05/16 05:56:33;;;;;;;22.77;13.63;;;;;;;16.51;98.18;94461.38;4994212;28;20518;-85
2023/05/16 05:59:00;;;;;;;15.93;12.97;;;;;;;16.54;98.30;94451.25;4979629;28;20436;-84
2023/05/16 06:01:27;;;;;;;18.10;13.93;;;;;;;16.64;97.60;94446.53;4996236;28;20452;-86
2023/05/16 06:03:53;;;;;;;17.60;11.70;;;;;;;16.72;97.51;94449.16;4994441;28;20479;-86
2023/05/16 06:06:20;;;;;;;14.97;12.53;;;;;;;16.75;97.49;94460.38;4993935;28;20444;-87
2023/05/16 06:08:47;;;;;;;19.13;13.10;;;;;;;16.75;96.77;94449.78;4993616;28;20988;-87
2023/05/16 06:11:15;;;;;;;24.53;15.27;;;;;;;16.79;96.88;94459.88;4993611;28;20459;-86
2023/05/16 06:13:42;;;;;;;17.87;13.13;;;;;;;16.80;97.01;94455.41;4993509;28;20491;-86
2023/05/16 06:16:09;;;;;;;17.33;12.63;;;;;;;16.75;96.99;94441.84;4993533;28;20434;-86
2023/05/16 06:18:36;;;;;;;19.43;12.97;;;;;;;16.80;97.14;94447.44;4993726;28;20530;-86
2023/05/16 06:21:03;;;;;;;17.47;12.33;;;;;;;16.77;96.83;94467.19;4993300;28;20453;-86
2023/05/16 06:23:30;;;;;;;17.83;13.40;;;;;;;16.77;97.21;94461.03;4993944;28;21146;-86
2023/05/16 06:25:56;;;;;;;20.80;12.83;;;;;;;16.71;97.25;94459.91;4993432;28;20440;-85
2023/05/16 06:28:25;;;;;;;17.33;13.47;;;;;;;16.73;97.47;94460.56;4993273;28;21019;-86
2023/05/16 06:30:51;;;;;;;18.97;14.83;;;;;;;16.79;97.61;94459.06;4994012;28;20455;-87
2023/05/16 06:33:18;;;;;;;14.93;12.63;;;;;;;16.79;96.97;94451.09;4997212;28;20791;-86
2023/05/16 06:35:45;;;;;;;16.20;13.77;;;;;;;16.77;97.61;94445.97;4997264;28;20797;-86
2023/05/16 06:38:12;;;;;;;13.83;12.43;;;;;;;16.67;97.73;94437.44;4996840;28;20433;-86
2023/05/16 06:44:01;;;;;;;16.33;12.73;;;;;;;16.49;98.31;94460.75;5015901;28;20450;-85
2023/05/16 06:46:28;;;;;;;13.53;12.13;;;;;;;16.43;98.51;94433.13;4981883;28;20952;-86
2023/05/16 06:48:55;;;;;;;13.63;11.50;;;;;;;16.41;99.28;94443.88;4982230;28;20485;-88
2023/05/16 06:51:21;;;;;;;19.48;13.75;;;;;;;16.50;99.17;94430.59;4978916;28;20439;-86
2023/05/16 06:53:48;;;;;;;14.37;12.97;;;;;;;16.49;99.16;94423.66;5014719;28;20206;-86
2023/05/16 06:56:15;;;;;;;17.60;13.23;;;;;;;16.47;97.84;94420.34;5014543;28;20439;-85
2023/05/16 06:58:42;;;;;;;18.67;13.30;;;;;;;16.45;98.26;94423.16;5014274;28;20482;-86
2023/05/16 07:01:10;;;;;;;13.27;11.87;;;;;;;16.41;99.13;94429.81;4979537;28;20497;-86
2023/05/16 07:03:37;;;;;;;14.10;12.63;;;;;;;16.49;100.00;94435.09;5014437;28;20483;-86
2023/05/16 07:06:04;;;;;;;12.47;11.03;;;;;;;16.43;99.39;94427.81;4978119;28;20503;-85
2023/05/16 07:08:30;;;;;;;23.53;12.33;;;;;;;16.37;100.00;94432.00;5013778;28;20494;-87
2023/05/16 07:10:57;;;;;;;13.70;11.60;;;;;;;16.43;100.00;94430.47;5009140;28;21020;-85
2023/05/16 07:13:24;;;;;;;12.77;11.47;;;;;;;16.44;100.00;94442.72;5011365;28;20455;-86
2023/05/16 07:15:51;;;;;;;16.70;11.70;;;;;;;16.36;98.76;94445.44;5008534;28;20459;-86
2023/05/16 07:18:19;;;;;;;15.03;12.33;;;;;;;16.31;98.95;94434.53;5013934;28;20427;-87
2023/05/16 07:20:46;;;;;;;17.47;12.07;;;;;;;16.19;99.27;94409.47;5013840;28;20520;-87
2023/05/16 07:23:12;;;;;;;14.43;12.00;;;;;;;16.20;99.61;94411.13;5014173;28;20458;-87
2023/05/16 07:25:40;;;;;;;13.50;11.70;;;;;;;16.40;100.00;94399.88;5014447;28;20505;-88
2023/05/16 07:28:06;;;;;;;15.07;11.70;;;;;;;16.47;99.97;94405.28;5014077;28;20483;-86
2023/05/16 07:30:33;;;;;;;15.63;14.03;;;;;;;16.54;99.93;94387.69;5013933;28;20446;-86
2023/05/16 07:33:00;;;;;;;20.00;12.70;;;;;;;16.55;99.94;94399.94;5014159;28;20438;-87
2023/05/16 07:35:28;;;;;;;15.83;12.17;;;;;;;16.58;99.08;94391.63;4979340;28;20502;-86
2023/05/16 07:37:55;;;;;;;16.50;13.30;;;;;;;16.63;99.38;94391.09;5014562;28;20961;-86
2023/05/16 07:40:24;;;;;;;14.67;12.37;;;;;;;16.70;98.21;94395.50;5013734;28;20926;-86
2023/05/16 07:42:51;;;;;;;18.97;13.03;;;;;;;16.69;98.25;94409.75;5012631;28;20486;-87
2023/05/16 07:45:18;;;;;;;16.23;11.43;;;;;;;16.73;98.06;94429.59;5013761;28;20473;-86
2023/05/16 07:47:45;;;;;;;19.03;13.70;;;;;;;16.74;97.37;94427.75;5013985;28;20491;-87
2023/05/16 07:50:11;;;;;;;16.47;12.00;;;;;;;16.82;97.12;94418.94;5013577;28;21004;-87
2023/05/16 07:52:40;;;;;;;15.50;12.70;;;;;;;16.68;96.50;94410.75;5013666;28;20458;-87
2023/05/16 07:55:08;;;;;;;21.57;12.73;;;;;;;16.80;97.36;94410.34;5013527;28;20486;-87
2023/05/16 07:57:34;;;;;;;15.80;13.20;;;;;;;16.96;97.58;94412.84;5013802;28;20453;-87
2023/05/16 08:00:03;;;;;;;14.40;11.57;;;;;;;17.03;96.38;94414.56;5013636;28;20449;-88
2023/05/16 08:02:30;;;;;;;21.97;12.73;;;;;;;16.99;97.50;94415.13;5013200;28;20485;-88
2023/05/16 08:04:57;;;;;;;17.93;13.40;;;;;;;17.03;96.33;94405.78;4978698;28;20506;-87
2023/05/16 08:07:24;;;;;;;18.40;11.17;;;;;;;16.95;95.89;94395.28;5013274;28;21032;-87
2023/05/16 08:09:52;;;;;;;15.53;11.97;;;;;;;16.93;95.80;94389.34;5013308;28;20440;-87
2023/05/16 08:12:19;;;;;;;19.00;12.27;;;;;;;16.97;95.23;94390.63;5012847;28;20459;-87
2023/05/16 08:14:46;;;;;;;18.43;12.37;;;;;;;17.14;97.46;94370.91;5013178;28;20467;-86
2023/05/16 08:17:13;;;;;;;16.13;11.63;;;;;;;17.31;97.84;94377.66;5013013;28;20458;-87
2023/05/16 08:19:40;;;;;;;13.30;10.27;;;;;;;17.38;94.52;94380.41;5013756;28;20876;-87
2023/05/16 08:22:07;;;;;;;19.03;11.70;;;;;;;17.44;94.83;94369.06;5012777;28;20535;-85
2023/05/16 08:24:34;;;;;;;18.03;11.53;;;;;;;17.51;95.44;94369.97;5012472;28;20445;-87
2023/05/16 08:27:02;;;;;;;13.27;11.87;;;;;;;17.62;94.08;94377.44;5012870;28;20451;-87
2023/05/16 08:29:29;;;;;;;15.27;11.77;;;;;;;17.70;94.45;94384.53;4978365;28;20472;-87
2023/05/16 08:31:55;;;;;;;15.60;10.73;;;;;;;17.80;93.43;94374.41;5013082;28;20448;-87
2023/05/16 08:34:22;;;;;;;15.63;11.00;;;;;;;17.87;92.30;94380.63;5013105;28;20445;-86
2023/05/16 08:36:49;;;;;;;11.30;10.10;;;;;;;17.87;90.99;94379.78;5012853;28;20452;-87
2023/05/16 08:39:16;;;;;;;20.10;10.70;;;;;;;17.97;91.47;94382.19;4978111;28;20445;-87
2023/05/16 08:41:43;;;;;;;11.27;10.17;;;;;;;18.03;92.05;94378.75;5012667;28;20445;-86
2023/05/16 08:44:19;;;;;;;11.43;10.13;;;;;;;18.11;91.18;94383.94;5012935;28;20453;-87
2023/05/16 08:46:51;;;;;;;22.90;11.30;;;;;;;18.19;91.25;94383.81;5013028;28;20445;-87
2023/05/16 08:49:18;;;;;;;13.00;11.80;;;;;;;18.32;90.43;94383.97;4978524;28;20567;-87
2023/05/16 08:51:46;;;;;;;16.40;10.07;;;;;;;18.42;89.81;94387.13;5013212;28;20471;-88
2023/05/16 08:54:15;;;;;;;11.73;10.20;;;;;;;18.52;88.24;94373.53;5012347;28;20455;-88
2023/05/16 08:56:42;;;;;;;12.67;9.77;;;;;;;18.66;88.38;94377.13;5012756;28;20450;-87
2023/05/16 08:59:11;;;;;;;11.30;10.27;;;;;;;18.81;88.71;94388.53;5012741;28;20446;-87
2023/05/16 09:01:38;;;;;;;13.17;9.87;;;;;;;18.93;86.49;94389.63;5012623;28;20534;-87
2023/05/16 09:04:07;;;;;;;18.13;11.00;;;;;;;19.03;85.62;94384.78;4993890;28;20471;-87
2023/05/16 09:06:34;;;;;;;11.53;9.40;;;;;;;19.15;85.54;94375.25;5012529;28;20458;-87
2023/05/16 09:09:03;;;;;;;10.83;9.67;;;;;;;19.26;84.83;94387.19;5010300;28;20573;-88
2023/05/16 09:11:30;;;;;;;10.60;9.50;;;;;;;19.37;85.85;94375.16;5012304;28;20483;-87
2023/05/16 09:13:57;;;;;;;12.90;8.50;;;;;;;19.49;86.24;94376.28;4990386;28;20823;-87
2023/05/16 09:16:25;;;;;;;13.27;10.30;;;;;;;19.48;84.68;94366.66;4974633;28;20502;-87
2023/05/16 09:18:55;;;;;;;18.60;10.20;;;;;;;19.54;84.23;94371.19;4992817;28;20450;-87
2023/05/16 09:21:23;;;;;;;21.23;9.40;;;;;;;19.54;82.79;94367.72;4992989;28;20460;-87
2023/05/16 09:23:50;;;;;;;19.90;10.17;;;;;;;19.52;83.29;94373.22;4992832;28;21006;-86
2023/05/16 09:26:16;;;;;;;16.43;9.87;;;;;;;19.45;83.54;94370.53;4992769;28;20448;-87
2023/05/16 09:28:43;;;;;;;15.80;9.53;;;;;;;19.43;82.91;94377.06;4992656;28;20492;-86
2023/05/16 09:31:21;;;;;;;13.23;10.57;;;;;;;19.41;83.67;94384.41;4993004;28;20466;-87
2023/05/16 09:33:50;;;;;;;15.67;10.33;;;;;;;19.33;83.08;94380.06;4993207;28;20987;-87
2023/05/16 09:36:16;;;;;;;10.60;9.23;;;;;;;19.27;83.25;94377.38;4992518;28;20526;-86
2023/05/16 09:38:43;;;;;;;20.47;10.40;;;;;;;19.16;84.25;94387.53;4993453;28;20467;-87
2023/05/16 09:41:11;;;;;;;11.87;9.60;;;;;;;19.10;84.23;94388.34;5012080;28;20866;-87
2023/05/16 09:43:39;;;;;;;14.43;9.60;;;;;;;19.04;83.94;94393.56;5014584;28;20838;-86
2023/05/16 09:46:06;;;;;;;22.20;10.80;;;;;;;19.01;85.59;94378.84;5012334;28;20443;-87
2023/05/16 09:48:33;;;;;;;12.17;9.73;;;;;;;19.03;86.27;94375.97;5012096;28;20490;-86
2023/05/16 09:51:05;;;;;;;10.60;9.50;;;;;;;19.03;84.94;94371.47;4993651;28;20514;-88
2023/05/16 09:53:33;;;;;;;16.87;10.50;;;;;;;19.05;83.74;94368.63;5011898;28;20467;-87
2023/05/16 09:56:03;;;;;;;14.33;10.80;;;;;;;19.09;84.40;94376.06;5011789;28;20884;-87
2023/05/16 09:58:31;;;;;;;15.17;10.20;;;;;;;19.23;84.11;94376.13;5012323;28;20471;-87
2023/05/16 10:00:59;;;;;;;15.10;10.60;;;;;;;19.28;85.58;94371.84;5011953;28;20467;-87
2023/05/16 10:03:26;;;;;;;12.43;10.20;;;;;;;19.38;83.41;94371.50;5011761;28;20875;-88
2023/05/16 10:05:53;;;;;;;15.30;10.77;;;;;;;19.43;84.78;94366.41;5012618;28;20535;-87
2023/05/16 10:08:24;;;;;;;14.73;10.57;;;;;;;19.50;84.24;94361.94;5015542;28;20552;-87
2023/05/16 10:10:53;;;;;;;11.20;10.03;;;;;;;19.50;83.38;94364.59;5015697;28;20459;-86
2023/05/16 10:13:21;;;;;;;15.70;10.33;;;;;;;19.54;85.37;94363.22;5015721;28;20961;-86
2023/05/16 10:15:49;;;;;;;19.53;12.33;;;;;;;19.54;85.76;94362.41;5015552;28;20443;-87
2023/05/16 10:18:18;;;;;;;18.40;10.97;;;;;;;19.56;84.40;94361.19;5015917;28;20449;-86
2023/05/16 10:20:49;;;;;;;15.47;10.50;;;;;;;19.63;84.44;94369.19;5015809;28;20435;-86
2023/05/16 10:23:18;;;;;;;12.93;9.83;;;;;;;19.65;84.64;94373.28;5014474;28;20535;-84
2023/05/16 10:25:48;;;;;;;11.43;10.33;;;;;;;19.62;83.18;94344.41;5015053;28;20531;-83
2023/05/16 10:28:16;;;;;;;14.90;10.50;;;;;;;19.59;82.60;94346.66;5014847;28;20451;-85
2023/05/16 10:30:45;;;;;;;15.20;10.80;;;;;;;19.63;84.78;94351.38;5014672;28;20493;-87
2023/05/16 10:33:13;;;;;;;24.97;10.60;;;;;;;19.61;83.29;94340.09;5014633;28;20850;-86
2023/05/16 10:35:40;;;;;;;11.67;10.57;;;;;;;19.66;84.29;94335.03;5013932;28;20839;-87
2023/05/16 10:38:08;;;;;;;16.90;10.00;;;;;;;19.72;85.63;94328.09;5015020;28;20469;-87
2023/05/16 10:40:36;;;;;;;12.30;10.33;;;;;;;19.77;84.82;94330.97;4996500;28;20539;-87
2023/05/16 10:43:06;;;;;;;12.33;10.90;;;;;;;19.77;85.14;94312.31;5015361;28;20526;-87
2023/05/16 10:45:33;;;;;;;13.40;10.57;;;;;;;19.79;84.50;94300.44;4981081;28;20440;-87
2023/05/16 10:48:03;;;;;;;17.47;11.20;;;;;;;19.85;85.10;94292.69;5016484;28;20487;-87
2023/05/16 10:50:34;;;;;;;13.37;10.93;;;;;;;19.64;84.80;94307.75;5016450;28;20554;-85
2023/05/16 10:53:20;;;;;;;13.20;10.90;;;;;;;19.77;84.47;94313.16;5016244;28;20515;-85
2023/05/16 10:56:07;;;;;;;11.00;10.00;;;;;;;19.67;84.37;94294.09;5016368;28;20441;-85
2023/05/16 10:58:43;;;;;;;11.70;10.53;;;;;;;19.73;83.70;94298.59;5017013;28;20439;-85
2023/05/16 11:01:21;;;;;;;16.30;9.93;;;;;;;19.69;83.48;94296.53;5016286;28;20434;-87
2023/05/16 11:04:05;;;;;;;16.57;10.80;;;;;;;19.59;84.22;94296.91;5003353;28;20472;-87
2023/05/16 11:06:33;;;;;;;15.87;11.87;;;;;;;19.61;83.67;94300.19;5014802;28;20447;-85
2023/05/16 11:09:08;;;;;;;12.27;11.07;;;;;;;19.69;83.62;94289.38;5013965;28;20479;-86
2023/05/16 11:11:40;;;;;;;14.33;10.27;;;;;;;19.72;83.16;94294.28;4980775;28;20447;-86
2023/05/16 11:14:08;;;;;;;19.07;11.20;;;;;;;19.75;83.35;94304.53;5014369;28;20939;-86
2023/05/16 11:16:36;;;;;;;12.80;10.27;;;;;;;19.73;83.14;94309.25;5012301;28;20895;-87
2023/05/16 11:19:07;;;;;;;20.27;10.73;;;;;;;19.82;83.29;94309.06;4991358;28;20448;-86
2023/05/16 11:22:06;;;;;;;19.40;10.30;;;;;;;19.84;82.98;94315.81;4988128;28;20950;-86
2023/05/16 11:24:33;;;;;;;10.67;9.57;;;;;;;19.74;82.78;94318.88;5011595;28;20551;-86
2023/05/16 11:27:01;;;;;;;15.23;11.10;;;;;;;19.92;83.38;94309.47;5031910;28;20844;-87
2023/05/16 11:29:31;;;;;;;10.93;9.80;;;;;;;19.94;82.46;94315.44;5015384;28;20588;-87
2023/05/16 11:31:59;;;;;;;20.60;10.93;;;;;;;20.06;83.88;94304.00;5013917;28;20529;-87
2023/05/16 11:34:26;;;;;;;14.60;10.07;;;;;;;20.20;83.78;94301.34;5014196;28;20473;-88
2023/05/16 11:36:53;;;;;;;18.53;10.60;;;;;;;20.22;81.14;94302.78;5014108;28;20984;-88
2023/05/16 11:39:19;;;;;;;13.43;10.60;;;;;;;20.29;81.10;94303.63;5012963;28;20817;-87
2023/05/16 11:41:46;;;;;;;20.40;10.17;;;;;;;20.33;81.45;94312.03;5013660;28;20522;-87
2023/05/16 11:44:13;;;;;;;13.13;10.03;;;;;;;20.48;80.06;94310.00;5013544;28;20956;-87
2023/05/16 11:46:42;;;;;;;18.23;10.10;;;;;;;20.58;79.71;94310.44;5013541;28;20475;-87
2023/05/16 11:49:09;;;;;;;12.20;9.60;;;;;;;20.66;79.23;94299.53;5012852;28;20480;-87
2023/05/16 11:51:38;;;;;;;16.67;11.33;;;;;;;20.80;78.14;94305.66;5013217;28;20873;-86
2023/05/16 11:54:06;;;;;;;15.63;10.60;;;;;;;20.88;79.59;94308.16;4991904;28;20450;-86